Map

Track Data

SID SEASON NUMBER BASIN SUBBASIN NAME ISO_TIME NATURE LAT LON WMO_WIND WMO_PRES WMO_AGENCY TRACK_TYPE DIST2LAND LANDFALL IFLAG USA_AGENCY USA_ATCF_ID USA_LAT USA_LON USA_RECORD USA_STATUS USA_WIND USA_PRES USA_SSHS USA_R34_NE USA_R34_SE USA_R34_SW USA_R34_NW USA_R50_NE USA_R50_SE USA_R50_SW USA_R50_NW USA_R64_NE USA_R64_SE USA_R64_SW USA_R64_NW USA_POCI USA_ROCI USA_RMW USA_EYE TOKYO_LAT TOKYO_LON TOKYO_GRADE TOKYO_WIND TOKYO_PRES TOKYO_R50_DIR TOKYO_R50_LONG TOKYO_R50_SHORT TOKYO_R30_DIR TOKYO_R30_LONG TOKYO_R30_SHORT TOKYO_LAND CMA_LAT CMA_LON CMA_CAT CMA_WIND CMA_PRES HKO_LAT HKO_LON HKO_CAT HKO_WIND HKO_PRES NEWDELHI_LAT NEWDELHI_LON NEWDELHI_GRADE NEWDELHI_WIND NEWDELHI_PRES NEWDELHI_CI NEWDELHI_DP NEWDELHI_POCI REUNION_LAT REUNION_LON REUNION_TYPE REUNION_WIND REUNION_PRES REUNION_TNUM REUNION_CI REUNION_RMW REUNION_R34_NE REUNION_R34_SE REUNION_R34_SW REUNION_R34_NW REUNION_R50_NE REUNION_R50_SE REUNION_R50_SW REUNION_R50_NW REUNION_R64_NE REUNION_R64_SE REUNION_R64_SW REUNION_R64_NW BOM_LAT BOM_LON BOM_TYPE BOM_WIND BOM_PRES BOM_TNUM BOM_CI BOM_RMW BOM_R34_NE BOM_R34_SE BOM_R34_SW BOM_R34_NW BOM_R50_NE BOM_R50_SE BOM_R50_SW BOM_R50_NW BOM_R64_NE BOM_R64_SE BOM_R64_SW BOM_R64_NW BOM_ROCI BOM_POCI BOM_EYE BOM_POS_METHOD BOM_PRES_METHOD NADI_LAT NADI_LON NADI_CAT NADI_WIND NADI_PRES WELLINGTON_LAT WELLINGTON_LON WELLINGTON_WIND WELLINGTON_PRES DS824_LAT DS824_LON DS824_STAGE DS824_WIND DS824_PRES TD9636_LAT TD9636_LON TD9636_STAGE TD9636_WIND TD9636_PRES TD9635_LAT TD9635_LON TD9635_WIND TD9635_PRES TD9635_ROCI NEUMANN_LAT NEUMANN_LON NEUMANN_CLASS NEUMANN_WIND NEUMANN_PRES MLC_LAT MLC_LON MLC_CLASS MLC_WIND MLC_PRES USA_GUST BOM_GUST BOM_GUST_PER REUNION_GUST REUNION_GUST_PER USA_SEAHGT USA_SEARAD_NE USA_SEARAD_SE USA_SEARAD_SW USA_SEARAD_NW STORM_SPEED STORM_DIR
1985297N10201 1985 106 EP CP NELE 1985-10-23 18:00:00 TS 9.76000 -159.500 30 hurdat_epa main 1097 1089 O_________O___ hurdat_epa CP011985 9.70000 -159.500 TD 30 -1 9.70000 -159.500 1 30 9 304
1985297N10201 1985 106 EP CP NELE 1985-10-23 21:00:00 TS 10.0111 -159.878 main 1094 1077 P_________P___ CP011985 9.93757 -159.850 TD 35 0 9.94753 -159.850 1 35 9 305
1985297N10201 1985 106 EP CP NELE 1985-10-24 00:00:00 TS 10.2800 -160.260 40 hurdat_epa main 1082 1067 O_________O___ hurdat_epa CP011985 10.2000 -160.200 TS 40 0 10.2000 -160.200 2 40 9 307
1985297N10201 1985 106 EP CP NELE 1985-10-24 03:00:00 TS 10.5753 -160.646 main 1067 1061 P_________P___ CP011985 10.5000 -160.550 TS 40 0 10.4617 -160.550 2 42 10 308
1985297N10201 1985 106 EP CP NELE 1985-10-24 06:00:00 TS 10.8666 -161.020 40 hurdat_epa main 1061 1057 O_________P___ hurdat_epa CP011985 10.8000 -160.900 TS 40 0 10.7328 -160.900 2 45 9 307
1985297N10201 1985 106 EP CP NELE 1985-10-24 09:00:00 TS 11.1155 -161.368 main 1066 1056 P_________P___ CP011985 11.0500 -161.250 TS 45 0 11.0125 -161.250 2 47 8 306
1985297N10201 1985 106 EP CP NELE 1985-10-24 12:00:00 TS 11.3600 -161.700 50 hurdat_epa main 1057 1053 O_________O___ hurdat_epa CP011985 11.3000 -161.600 TS 50 0 11.3000 -161.600 2 50 8 308
1985297N10201 1985 106 EP CP NELE 1985-10-24 15:00:00 TS 11.6358 -162.037 main 1060 1055 P_________P___ CP011985 11.5925 -161.950 TS 50 0 11.6092 -161.982 2 52 9 311
1985297N10201 1985 106 EP CP NELE 1985-10-24 18:00:00 TS 11.9245 -162.372 50 hurdat_epa main 1062 1052 O_________P___ hurdat_epa CP011985 11.9000 -162.300 TS 50 0 11.9227 -162.360 2 55 9 311
1985297N10201 1985 106 EP CP NELE 1985-10-24 21:00:00 TS 12.2210 -162.725 main 1060 1059 P_________P___ CP011985 12.2150 -162.672 TS 55 0 12.2248 -162.707 2 57 9 311
1985297N10201 1985 106 EP CP NELE 1985-10-25 00:00:00 TS 12.5000 -163.040 60 hurdat_epa main 1059 1059 O_________O___ hurdat_epa CP011985 12.5000 -163.000 TS 60 0 12.5000 -163.000 2 60 7 313
1985297N10201 1985 106 EP CP NELE 1985-10-25 03:00:00 TS 12.7308 -163.277 main 1067 1059 P_________P___ CP011985 12.7149 -163.238 TS 60 0 12.7244 -163.208 2 61 6 318
1985297N10201 1985 106 EP CP NELE 1985-10-25 06:00:00 TS 12.9444 -163.452 60 hurdat_epa main 1068 1053 O_________P___ hurdat_epa CP011985 12.9000 -163.400 TS 60 0 12.9221 -163.361 2 62 5 325
1985297N10201 1985 106 EP CP NELE 1985-10-25 09:00:00 TS 13.1672 -163.587 main 1054 1047 P_________P___ CP011985 13.0925 -163.508 TS 62 0 13.1088 -163.483 2 63 5 332
1985297N10201 1985 106 EP CP NELE 1985-10-25 12:00:00 TS 13.4000 -163.700 65 hurdat_epa main 1047 1030 O_________O___ hurdat_epa CP011985 13.3000 -163.600 HU 65 1 13.3000 -163.600 3 65 5 333
1985297N10201 1985 106 EP CP NELE 1985-10-25 15:00:00 TS 13.6509 -163.836 main 1020 1004 P_________P___ CP011985 13.5500 -163.742 HU 70 1 13.4894 -163.774 3 68 6 332
1985297N10201 1985 106 EP CP NELE 1985-10-25 18:00:00 TS 13.8980 -163.969 75 hurdat_epa main 1009 993 O_________P___ hurdat_epa CP011985 13.8000 -163.900 HU 75 1 13.6901 -163.945 3 72 5 330
1985297N10201 1985 106 EP CP NELE 1985-10-25 21:00:00 TS 14.1066 -164.104 main 993 978 P_________P___ CP011985 13.9850 -164.072 HU 77 1 13.9207 -164.093 3 76 5 333
1985297N10201 1985 106 EP CP NELE 1985-10-26 00:00:00 TS 14.3400 -164.200 80 hurdat_epa main 978 949 O_________O___ hurdat_epa CP011985 14.2000 -164.200 HU 80 1 14.2000 -164.200 4 80 6 348
1985297N10201 1985 106 EP CP NELE 1985-10-26 03:00:00 TS 14.6466 -164.221 main 949 910 P_________P___ CP011985 14.5125 -164.223 HU 80 1 14.5456 -164.239 4 80 7 0
1985297N10201 1985 106 EP CP NELE 1985-10-26 06:00:00 TS 15.0080 -164.208 80 hurdat_epa main 910 871 O_________P___ hurdat_epa CP011985 14.9000 -164.200 HU 80 1 14.9400 -164.238 4 80 8 1
1985297N10201 1985 106 EP CP NELE 1985-10-26 09:00:00 TS 15.4054 -164.199 main 871 833 P_________P___ CP011985 15.3425 -164.193 HU 80 1 15.3644 -164.217 4 80 8 0
1985297N10201 1985 106 EP CP NELE 1985-10-26 12:00:00 TS 15.8200 -164.200 80 hurdat_epa main 833 796 O_________O___ hurdat_epa CP011985 15.8000 -164.200 HU 80 1 15.8000 -164.200 4 80 8 0
1985297N10201 1985 106 EP CP NELE 1985-10-26 15:00:00 TS 16.2099 -164.226 main 796 766 P_________P___ CP011985 16.2000 -164.250 HU 77 1 16.2218 -164.194 4 78 8 356
1985297N10201 1985 106 EP CP NELE 1985-10-26 18:00:00 TS 16.6100 -164.260 75 hurdat_epa main 766 731 O_________P___ hurdat_epa CP011985 16.6000 -164.300 HU 75 1 16.6499 -164.198 4 77 8 357
1985297N10201 1985 106 EP CP NELE 1985-10-26 21:00:00 TS 17.0411 -164.278 main 731 689 P_________P___ CP011985 17.0500 -164.293 HU 75 1 17.0780 -164.228 4 76 9 356
1985297N10201 1985 106 EP CP NELE 1985-10-27 00:00:00 TS 17.4800 -164.320 75 hurdat_epa main 689 664 O_________O___ hurdat_epa CP011985 17.5000 -164.300 HU 75 1 17.5000 -164.300 4 75 9 353
1985297N10201 1985 106 EP CP NELE 1985-10-27 03:00:00 TS 17.9059 -164.395 main 664 641 P_________P___ CP011985 17.9075 -164.363 HU 75 1 17.9071 -164.408 4 73 9 347
1985297N10201 1985 106 EP CP NELE 1985-10-27 06:00:00 TS 18.3215 -164.532 75 hurdat_epa main 641 630 O_________P___ hurdat_epa CP011985 18.3000 -164.500 HU 75 1 18.3073 -164.560 4 72 9 338
1985297N10201 1985 106 EP CP NELE 1985-10-27 09:00:00 TS 18.7268 -164.748 main 630 625 P_________P___ CP011985 18.7000 -164.720 HU 72 1 18.7039 -164.758 4 71 9 330
1985297N10201 1985 106 EP CP NELE 1985-10-27 12:00:00 TS 19.1200 -165.020 70 hurdat_epa main 630 628 O_________O___ hurdat_epa CP011985 19.1000 -165.000 HU 70 1 19.1000 -165.000 4 70 9 326
1985297N10201 1985 106 EP CP NELE 1985-10-27 15:00:00 TS 19.4969 -165.307 main 636 636 P_________P___ CP011985 19.4999 -165.285 HU 70 1 19.4922 -165.294 4 70 10 323
1985297N10201 1985 106 EP CP NELE 1985-10-27 18:00:00 TS 19.8771 -165.625 70 hurdat_epa main 646 646 O_________P___ hurdat_epa CP011985 19.9000 -165.600 HU 70 1 19.8854 -165.627 4 70 10 321
1985297N10201 1985 106 EP CP NELE 1985-10-27 21:00:00 TS 20.2827 -165.980 main 670 666 P_________P___ CP011985 20.3001 -165.958 HU 70 1 20.2859 -165.972 4 70 11 322
1985297N10201 1985 106 EP CP NELE 1985-10-28 00:00:00 TS 20.7000 -166.320 70 hurdat_epa main 688 688 O_________O___ hurdat_epa CP011985 20.7000 -166.300 HU 70 1 20.7000 -166.300 4 70 10 325
1985297N10201 1985 106 EP CP NELE 1985-10-28 03:00:00 TS 21.1088 -166.588 main 710 708 P_________P___ CP011985 21.0849 -166.565 HU 70 1 21.1394 -166.572 4 70 10 331
1985297N10201 1985 106 EP CP NELE 1985-10-28 06:00:00 TS 21.5384 -166.825 70 hurdat_epa main 724 723 O_________P___ hurdat_epa CP011985 21.5000 -166.800 HU 70 1 21.5921 -166.823 4 70 10 334
1985297N10201 1985 106 EP CP NELE 1985-10-28 09:00:00 TS 22.0168 -167.069 main 752 752 P_________P___ CP011985 21.9925 -167.057 HU 70 1 22.0488 -167.063 4 70 11 335
1985297N10201 1985 106 EP CP NELE 1985-10-28 12:00:00 TS 22.5000 -167.300 70 hurdat_epa main 773 773 O_________O___ hurdat_epa CP011985 22.5000 -167.300 HU 70 1 22.5000 -167.300 4 70 10 337
1985297N10201 1985 106 EP CP NELE 1985-10-28 15:00:00 TS 22.9388 -167.501 main 797 797 P_________P___ CP011985 22.9649 -167.493 HU 70 1 22.8996 -167.551 4 70 9 336
1985297N10201 1985 106 EP CP NELE 1985-10-28 18:00:00 TS 23.3595 -167.720 70 hurdat_epa main 824 824 O_________P___ hurdat_epa CP011985 23.4000 -167.700 HU 70 1 23.2974 -167.801 4 70 9 331
1985297N10201 1985 106 EP CP NELE 1985-10-28 21:00:00 TS 23.7593 -168.005 main 863 863 P_________P___ CP011985 23.7850 -167.985 HU 70 1 23.7215 -168.051 4 70 10 327
1985297N10201 1985 106 EP CP NELE 1985-10-29 00:00:00 TS 24.2000 -168.320 70 hurdat_epa main 902 902 O_________O___ hurdat_epa CP011985 24.2000 -168.300 HU 70 1 24.2000 -168.300 4 70 11 329
1985297N10201 1985 106 EP CP NELE 1985-10-29 03:00:00 TS 24.7241 -168.644 main 947 947 P_________P___ CP011985 24.7050 -168.615 HU 70 1 24.7353 -168.574 4 70 13 333
1985297N10201 1985 106 EP CP NELE 1985-10-29 06:00:00 TS 25.3261 -168.949 70 hurdat_epa main 996 996 O_________P___ hurdat_epa CP011985 25.3000 -168.900 HU 70 1 25.3304 -168.844 4 70 14 338
1985297N10201 1985 106 EP CP NELE 1985-10-29 09:00:00 TS 25.9786 -169.213 main 1053 1053 P_________P___ CP011985 25.9550 -169.123 HU 70 1 25.9853 -169.093 4 70 14 343
1985297N10201 1985 106 EP CP NELE 1985-10-29 12:00:00 TS 26.7000 -169.420 70 hurdat_epa main 1104 1104 O_________O___ hurdat_epa CP011985 26.7000 -169.300 HU 70 1 26.7000 -169.300 4 70 15 348
1985297N10201 1985 106 EP CP NELE 1985-10-29 15:00:00 TS 27.4712 -169.576 main 1163 1163 P_________P___ CP011985 27.5350 -169.472 HU 70 1 27.4537 -169.453 4 70 16 352
1985297N10201 1985 106 EP CP NELE 1985-10-29 18:00:00 TS 28.2929 -169.672 70 hurdat_epa main 1218 1218 O_________P___ hurdat_epa CP011985 28.4000 -169.600 HU 70 1 28.2646 -169.562 4 70 17 355
1985297N10201 1985 106 EP CP NELE 1985-10-29 21:00:00 TS 29.1286 -169.722 main 1269 1269 P_________P___ CP011985 29.1925 -169.665 HU 70 1 29.1183 -169.641 4 70 17 358
1985297N10201 1985 106 EP CP NELE 1985-10-30 00:00:00 TS 30.0000 -169.750 70 hurdat_epa main 1331 1338 O_________O___ hurdat_epa CP011985 30.0000 -169.700 HU 70 1 30.0000 -169.700 4 70 18 358
1985297N10201 1985 106 EP CP NELE 1985-10-30 03:00:00 TS 30.9212 -169.803 main 1403 1403 P_________P___ CP011985 30.8541 -169.888 HU 65 1 30.8966 -169.751 4 65 19 359
1985297N10201 1985 106 EP CP NELE 1985-10-30 06:00:00 TS 31.8857 -169.757 60 hurdat_epa main 1480 1473 O_________O___ hurdat_epa CP011985 31.8000 -169.800 TS 60 0 31.8000 -169.800 2 60 22 18
1985297N10201 1985 106 EP CP NELE 1985-10-30 09:00:00 NR 33.0026 -169.005 main 1521 1521 P_____________ CP011985 32.8681 -169.100 TS 60 0 2 26 35
1985297N10201 1985 106 EP CP NELE 1985-10-30 12:00:00 NR 34.0000 -168.000 60 cphc main 1556 O_____________ cphc 34.0000 -168.000 60 26 40

About IBTrACS Database

This database is a web-friendly format of International Best Track Archive for Climate Stewardship (IBTrACS), a global best track data archive curated by NOAA dating back to 1842.

Updated: 2021-12-01